Time;durP1;ratioP1;P1;durP2;ratioP2;P2;SDS_P1;SDS_P2;PMS_P1;PMS_P2;Temp;Humidity;BMP_temperature;BMP_pressure;BME280_temperature;BME280_humidity;BME280_pressure;Samples;Min_cycle;Max_cycle;Signal;HPM_P1;HPM_P2
2023/01/18 00:02:22;;;;;;;17.17;6.03;;;;;;;-5.54;100.00;98616.03;5057905;28;20051;-55
2023/01/18 00:04:47;;;;;;;13.18;5.38;;;;;;;-5.37;100.00;98612.00;5062133;28;20037;-56
2023/01/18 00:07:12;;;;;;;15.13;6.95;;;;;;;-5.51;100.00;98610.59;5060613;28;20037;-54
2023/01/18 00:09:38;;;;;;;12.07;4.80;;;;;;;-5.52;100.00;98603.00;5060997;28;20032;-56
2023/01/18 00:12:03;;;;;;;13.77;4.32;;;;;;;-5.58;100.00;98604.34;5067279;28;20024;-54
2023/01/18 00:14:28;;;;;;;13.93;4.82;;;;;;;-5.49;100.00;98600.16;5057781;28;20028;-57
2023/01/18 00:16:54;;;;;;;10.07;4.47;;;;;;;-5.40;100.00;98604.47;5062921;28;20124;-53
2023/01/18 00:19:19;;;;;;;11.80;4.68;;;;;;;-5.43;100.00;98601.38;5062602;28;20123;-54
2023/01/18 00:21:44;;;;;;;6.25;3.15;;;;;;;-5.34;100.00;98616.06;5055241;28;20370;-54
2023/01/18 00:24:13;;;;;;;9.73;4.18;;;;;;;-5.14;100.00;98617.66;5058474;28;20552;-56
2023/01/18 00:26:39;;;;;;;3.33;1.63;;;;;;;-4.80;100.00;98612.09;5057473;28;20047;-50
2023/01/18 00:29:05;;;;;;;9.82;2.30;;;;;;;-4.68;100.00;98613.53;5058930;28;20041;-52
2023/01/18 00:31:31;;;;;;;10.68;4.32;;;;;;;-4.77;100.00;98611.81;5063104;28;20082;-53
2023/01/18 00:33:56;;;;;;;5.50;2.88;;;;;;;-4.81;100.00;98602.69;5061180;28;20115;-55
2023/01/18 00:36:21;;;;;;;9.32;2.85;;;;;;;-4.87;100.00;98609.22;5057126;28;20043;-53
2023/01/18 00:38:50;;;;;;;8.02;2.47;;;;;;;-4.90;100.00;98606.13;5057245;28;20028;-53
2023/01/18 00:41:16;;;;;;;2.78;1.77;;;;;;;-4.95;100.00;98609.09;5059618;28;20051;-53
2023/01/18 00:43:42;;;;;;;7.88;2.88;;;;;;;-4.95;100.00;98603.13;5059079;28;20021;-56
2023/01/18 00:46:10;;;;;;;6.30;1.88;;;;;;;-4.99;100.00;98610.31;5055611;28;20070;-53
2023/01/18 00:48:37;;;;;;;6.45;1.45;;;;;;;-5.07;100.00;98608.44;5068337;28;20525;-56
2023/01/18 00:51:03;;;;;;;4.80;2.20;;;;;;;-5.07;100.00;98613.59;5060183;28;20041;-54
2023/01/18 00:53:29;;;;;;;3.40;1.17;;;;;;;-5.01;100.00;98612.22;5061329;28;20028;-53
2023/01/18 00:55:54;;;;;;;3.03;1.48;;;;;;;-4.96;100.00;98611.81;5063684;28;20177;-51
2023/01/18 00:58:19;;;;;;;1.88;1.67;;;;;;;-4.79;100.00;98618.88;5066849;28;20059;-55
2023/01/18 01:00:47;;;;;;;6.80;2.47;;;;;;;-4.64;100.00;98619.28;5063537;28;20028;-56
2023/01/18 01:03:13;;;;;;;2.17;0.57;;;;;;;-4.63;100.00;98611.34;5062361;28;20371;-55
2023/01/18 01:08:23;;;;;;;2.88;1.20;;;;;;;-4.74;100.00;98598.59;5061686;28;20027;-51
2023/01/18 01:10:50;;;;;;;1.88;0.68;;;;;;;-4.81;100.00;98607.84;5065124;28;20028;-53
2023/01/18 01:27:04;;;;;;;1.33;0.52;;;;;;;-4.69;100.00;98632.59;5061434;28;20402;-54
2023/01/18 01:29:29;;;;;;;0.22;0.10;;;;;;;-4.47;100.00;98634.03;5063666;28;20024;-55
2023/01/18 01:31:55;;;;;;;1.70;0.57;;;;;;;-4.24;100.00;98644.06;5057897;28;20040;-54
2023/01/18 01:34:20;;;;;;;6.25;1.05;;;;;;;-4.14;100.00;98642.25;5058255;28;20406;-52
2023/01/18 01:36:45;;;;;;;6.50;0.32;;;;;;;-4.09;100.00;98647.00;5062027;28;20028;-50
2023/01/18 01:39:11;;;;;;;1.75;0.68;;;;;;;-3.67;100.00;98646.53;5064199;28;20056;-51
2023/01/18 01:41:37;;;;;;;1.73;0.38;;;;;;;-3.15;100.00;98644.97;5060626;28;20039;-55
2023/01/18 01:44:23;;;;;;;1.35;0.30;;;;;;;-2.83;100.00;98642.81;5071257;28;20028;-57
2023/01/18 01:47:11;;;;;;;1.27;0.30;;;;;;;-3.01;100.00;98640.22;5057686;28;20032;-55
2023/01/18 01:50:00;;;;;;;0.10;0.10;;;;;;;-3.25;100.00;98639.06;5056164;28;20059;-54
2023/01/18 01:52:33;;;;;;;3.45;0.30;;;;;;;-3.47;100.00;98640.28;5053602;28;20028;-53
2023/01/18 01:55:11;;;;;;;5.78;0.65;;;;;;;-3.46;100.00;98647.06;5059672;28;20489;-55
2023/01/18 01:57:41;;;;;;;0.65;0.25;;;;;;;-3.40;100.00;98645.69;5065666;28;20074;-57
2023/01/18 02:00:24;;;;;;;1.75;0.28;;;;;;;-3.19;100.00;98648.81;5068462;28;20404;-54
2023/01/18 02:02:55;;;;;;;0.85;0.30;;;;;;;-3.07;100.00;98649.44;5058329;28;20462;-53
2023/01/18 02:05:21;;;;;;;2.72;0.40;;;;;;;-3.18;100.00;98649.63;5062084;28;20656;-51
2023/01/18 02:07:47;;;;;;;5.53;1.25;;;;;;;-3.35;100.00;98649.47;5061028;28;20064;-53
2023/01/18 02:10:13;;;;;;;0.57;0.50;;;;;;;-3.53;100.00;98654.63;5057942;28;20025;-51
2023/01/18 02:12:41;;;;;;;0.93;0.47;;;;;;;-3.49;100.00;98646.56;5058193;28;20044;-49
2023/01/18 02:15:07;;;;;;;4.00;0.40;;;;;;;-3.34;100.00;98645.91;5060659;28;20487;-51
2023/01/18 02:17:51;;;;;;;0.82;0.17;;;;;;;-3.05;100.00;98644.88;5062228;28;20025;-51
2023/01/18 02:20:38;;;;;;;0.82;0.50;;;;;;;-3.31;100.00;98629.25;5059115;28;20032;-56
2023/01/18 02:23:21;;;;;;;1.30;0.28;;;;;;;-3.42;100.00;98634.66;5058845;28;20031;-56
2023/01/18 02:26:05;;;;;;;1.20;0.22;;;;;;;-3.15;100.00;98634.59;5057266;28;20363;-55
2023/01/18 02:28:36;;;;;;;2.25;0.40;;;;;;;-3.14;100.00;98638.00;5055360;28;20041;-54
2023/01/18 02:31:18;;;;;;;;;;;;;;;-2.95;100.00;98637.84;5061954;28;20071;-51
2023/01/18 02:34:00;;;;;;;3.53;0.75;;;;;;;-2.93;100.00;98638.50;5065998;28;20397;-55
2023/01/18 02:36:42;;;;;;;0.55;0.22;;;;;;;-2.87;100.00;98648.28;5062346;28;20389;-56
2023/01/18 02:39:22;;;;;;;2.28;0.50;;;;;;;-2.89;100.00;98660.59;5072460;28;20039;-54
2023/01/18 02:47:26;;;;;;;1.17;0.30;;;;;;;-2.66;100.00;98660.09;5064607;28;20086;-53
2023/01/18 02:49:52;;;;;;;1.40;0.35;;;;;;;-2.74;100.00;98650.47;5056728;28;20171;-52
2023/01/18 02:52:32;;;;;;;2.38;0.43;;;;;;;-2.70;100.00;98638.84;5070432;28;20159;-56
2023/01/18 02:54:58;;;;;;;3.10;0.30;;;;;;;-2.56;100.00;98647.84;5062839;28;20033;-53
2023/01/18 02:57:23;;;;;;;7.35;0.82;;;;;;;-2.60;100.00;98648.34;5061965;28;20421;-55
2023/01/18 02:59:53;;;;;;;0.82;0.38;;;;;;;-2.75;100.00;98648.88;5056747;28;20053;-55
2023/01/18 03:02:21;;;;;;;0.35;0.22;;;;;;;-2.77;100.00;98647.38;5063067;28;20033;-52
2023/01/18 03:04:54;;;;;;;4.45;0.60;;;;;;;-2.68;100.00;98644.72;5062719;28;20025;-55
2023/01/18 03:07:24;;;;;;;1.30;0.30;;;;;;;-2.96;100.00;98649.19;5061695;28;20111;-52
2023/01/18 03:09:50;;;;;;;1.95;0.47;;;;;;;-3.04;100.00;98640.53;5060322;28;20033;-53
2023/01/18 03:12:45;;;;;;;1.23;0.70;;;;;;;-3.13;100.00;98661.19;5061466;28;20024;-54
2023/01/18 03:15:19;;;;;;;0.55;0.55;;;;;;;-3.12;100.00;98649.88;5058982;28;20535;-56
2023/01/18 03:17:58;;;;;;;0.77;0.32;;;;;;;-3.16;100.00;98643.34;5067277;28;20447;-54
2023/01/18 03:20:29;;;;;;;0.90;0.35;;;;;;;-3.04;100.00;98651.72;5067761;28;20037;-57
2023/01/18 03:25:48;;;;;;;5.20;0.85;;;;;;;-3.17;100.00;98651.28;5063295;28;20405;-56
2023/01/18 03:34:27;;;;;;;6.78;0.50;;;;;;;-3.23;100.00;98668.22;5058349;28;20513;-56
2023/01/18 03:36:57;;;;;;;0.35;0.28;;;;;;;-3.49;100.00;98672.47;5063236;28;20029;-57
2023/01/18 03:39:32;;;;;;;0.70;0.45;;;;;;;-3.49;100.00;98669.88;5056561;28;20397;-53
2023/01/18 03:42:18;;;;;;;3.40;0.38;;;;;;;-3.56;100.00;98659.31;5058515;28;20492;-53
2023/01/18 03:44:57;;;;;;;1.27;0.38;;;;;;;-3.79;100.00;98661.47;5070380;28;20032;-54
2023/01/18 03:47:23;;;;;;;0.85;0.47;;;;;;;-3.61;100.00;98658.94;5063426;28;20054;-55
2023/01/18 03:49:49;;;;;;;2.92;0.28;;;;;;;-3.49;100.00;98662.13;5060938;28;20084;-55
2023/01/18 03:52:29;;;;;;;4.57;0.25;;;;;;;-3.46;100.00;98660.03;5056120;28;20472;-57
2023/01/18 03:55:02;;;;;;;4.15;1.08;;;;;;;-3.45;100.00;98653.91;5056310;28;20485;-54
2023/01/18 03:57:49;;;;;;;1.45;0.25;;;;;;;-3.65;100.00;98657.56;5076976;28;20039;-57
2023/01/18 04:00:15;;;;;;;0.52;0.22;;;;;;;-3.71;100.00;98655.56;5061488;28;20028;-57
2023/01/18 04:02:43;;;;;;;0.20;0.20;;;;;;;-3.63;100.00;98655.66;5063691;28;20170;-53
2023/01/18 04:05:09;;;;;;;0.30;0.30;;;;;;;-3.59;100.00;98659.56;5064567;28;20058;-55
2023/01/18 04:07:34;;;;;;;0.88;0.30;;;;;;;-3.78;100.00;98658.72;5066430;28;20025;-51
2023/01/18 04:10:00;;;;;;;1.77;0.30;;;;;;;-3.73;100.00;98658.28;5066596;28;20039;-57
2023/01/18 04:12:25;;;;;;;1.08;0.30;;;;;;;-3.70;100.00;98660.59;5062913;28;20032;-51
2023/01/18 04:14:51;;;;;;;2.05;0.45;;;;;;;-3.71;100.00;98664.16;5062361;28;20062;-56
2023/01/18 04:17:17;;;;;;;1.60;0.30;;;;;;;-3.63;100.00;98661.66;5059688;28;20044;-49
2023/01/18 04:19:43;;;;;;;3.47;0.28;;;;;;;-3.54;100.00;98665.13;5054752;28;20043;-51
2023/01/18 04:22:09;;;;;;;3.83;0.40;;;;;;;-3.62;100.00;98658.09;5060426;28;20400;-53
2023/01/18 04:24:34;;;;;;;0.43;0.43;;;;;;;-3.75;100.00;98667.97;5062843;28;20535;-55
2023/01/18 04:26:59;;;;;;;3.20;0.45;;;;;;;-3.92;100.00;98664.38;5066413;28;20033;-55
2023/01/18 04:29:25;;;;;;;0.63;0.25;;;;;;;-4.08;100.00;98661.56;5060538;28;20090;-53
2023/01/18 04:31:50;;;;;;;4.35;0.20;;;;;;;-4.09;100.00;98668.53;5058583;28;20032;-56
2023/01/18 04:34:16;;;;;;;0.75;0.22;;;;;;;-4.13;100.00;98662.03;5061643;28;20482;-56
2023/01/18 04:36:42;;;;;;;0.95;0.30;;;;;;;-4.15;100.00;98656.16;5061978;28;20037;-56
2023/01/18 04:39:11;;;;;;;1.38;0.32;;;;;;;-4.06;100.00;98654.50;5065450;28;20036;-53
2023/01/18 04:41:36;;;;;;;3.83;0.30;;;;;;;-4.57;100.00;98659.13;5061082;28;20043;-56
2023/01/18 04:44:02;;;;;;;1.67;0.50;;;;;;;-4.56;100.00;98652.19;5056996;28;20041;-54
2023/01/18 04:46:27;;;;;;;2.75;0.68;;;;;;;-4.51;100.00;98640.47;5058051;28;20032;-56
2023/01/18 04:48:53;;;;;;;1.90;0.35;;;;;;;-4.47;100.00;98641.00;5064662;28;20501;-52
2023/01/18 04:51:18;;;;;;;3.60;1.40;;;;;;;-4.61;100.00;98650.03;5062000;28;20032;-54
2023/01/18 04:53:44;;;;;;;4.20;0.90;;;;;;;-4.65;100.00;98643.47;5058264;28;20035;-52
2023/01/18 04:56:10;;;;;;;4.57;0.55;;;;;;;-4.89;100.00;98656.84;5064963;28;20025;-56
2023/01/18 04:58:36;;;;;;;0.60;0.20;;;;;;;-5.00;100.00;98652.66;5056727;28;20060;-54
2023/01/18 05:01:02;;;;;;;3.80;0.20;;;;;;;-4.95;100.00;98652.25;5066958;28;20119;-56
2023/01/18 05:03:28;;;;;;;0.90;0.30;;;;;;;-5.06;100.00;98661.78;5052267;28;20033;-56
2023/01/18 05:05:53;;;;;;;1.00;0.17;;;;;;;-5.21;100.00;98663.13;5068231;28;20504;-52
2023/01/18 05:08:19;;;;;;;1.50;0.13;;;;;;;-5.38;100.00;98664.59;5072656;28;20040;-51
2023/01/18 05:10:44;;;;;;;1.05;0.10;;;;;;;-5.49;100.00;98681.03;5060303;28;20493;-54
2023/01/18 05:13:09;;;;;;;0.68;0.25;;;;;;;-5.56;100.00;98685.06;5065059;28;20064;-56
2023/01/18 05:15:35;;;;;;;2.95;0.60;;;;;;;-5.60;100.00;98678.56;5057549;28;20079;-54
2023/01/18 05:18:01;;;;;;;2.10;0.70;;;;;;;-5.42;100.00;98680.47;5065013;28;20029;-55
2023/01/18 05:20:27;;;;;;;0.80;0.35;;;;;;;-5.34;100.00;98684.06;5061537;28;20036;-51
2023/01/18 05:22:52;;;;;;;3.63;0.10;;;;;;;-5.33;100.00;98682.28;5061169;28;20052;-56
2023/01/18 05:25:17;;;;;;;1.42;0.50;;;;;;;-5.38;100.00;98676.69;5056323;28;20036;-57
2023/01/18 05:27:43;;;;;;;0.55;0.43;;;;;;;-5.37;100.00;98679.16;5057330;28;20028;-56
2023/01/18 05:30:10;;;;;;;0.77;0.38;;;;;;;-5.29;100.00;98676.72;5064869;28;20119;-52
2023/01/18 05:32:35;;;;;;;0.28;0.20;;;;;;;-5.36;100.00;98685.13;5063887;28;20085;-51
2023/01/18 05:35:02;;;;;;;0.30;0.30;;;;;;;-5.37;100.00;98683.47;5054489;28;20032;-55
2023/01/18 05:37:27;;;;;;;1.15;0.40;;;;;;;-5.33;100.00;98690.84;5061143;28;21618;-56
2023/01/18 05:39:53;;;;;;;8.10;0.75;;;;;;;-5.21;100.00;98688.97;5059723;28;20071;-53
2023/01/18 05:42:18;;;;;;;0.60;0.60;;;;;;;-5.07;100.00;98688.53;5060404;28;20068;-54
2023/01/18 05:44:43;;;;;;;3.05;0.55;;;;;;;-5.10;100.00;98690.59;5054141;28;20032;-57
2023/01/18 05:47:08;;;;;;;1.00;0.28;;;;;;;-5.21;100.00;98699.28;5058511;28;20077;-56
2023/01/18 05:49:34;;;;;;;1.30;0.82;;;;;;;-5.24;100.00;98689.25;5074299;28;20045;-54
2023/01/18 05:51:59;;;;;;;0.85;0.30;;;;;;;-5.40;100.00;98686.34;5055612;28;20029;-53
2023/01/18 05:54:24;;;;;;;1.38;0.40;;;;;;;-5.42;100.00;98680.47;5054730;28;20060;-54
2023/01/18 05:56:50;;;;;;;1.90;0.60;;;;;;;-5.41;100.00;98692.47;5053874;28;20110;-56
2023/01/18 05:59:15;;;;;;;0.65;0.50;;;;;;;-5.30;100.00;98694.91;5060867;28;20077;-56
2023/01/18 06:01:41;;;;;;;0.40;0.10;;;;;;;-5.24;100.00;98698.72;5057120;28;20032;-56
2023/01/18 06:04:07;;;;;;;2.63;1.00;;;;;;;-5.22;100.00;98710.56;5064974;28;20544;-53
2023/01/18 06:06:32;;;;;;;5.80;1.40;;;;;;;-5.09;100.00;98705.94;5061984;28;20020;-57
2023/01/18 06:08:57;;;;;;;4.47;0.60;;;;;;;-4.95;100.00;98706.53;5057736;28;20028;-57
2023/01/18 06:11:23;;;;;;;5.43;1.15;;;;;;;-4.88;100.00;98705.84;5056209;28;20032;-53
2023/01/18 06:13:48;;;;;;;3.05;0.88;;;;;;;-4.84;100.00;98698.63;5065437;28;20024;-57
2023/01/18 06:16:14;;;;;;;2.50;1.58;;;;;;;-4.98;100.00;98717.97;5059236;28;20083;-54
2023/01/18 06:18:40;;;;;;;11.75;2.05;;;;;;;-5.07;100.00;98722.16;5059620;28;20382;-54
2023/01/18 06:21:06;;;;;;;7.88;2.88;;;;;;;-4.89;100.00;98724.06;5059348;28;20052;-54
2023/01/18 06:23:31;;;;;;;27.30;6.38;;;;;;;-4.75;100.00;98720.25;5059026;28;20028;-55
2023/01/18 06:25:57;;;;;;;10.52;4.53;;;;;;;-4.73;100.00;98733.88;5052358;28;20439;-53
2023/01/18 06:28:23;;;;;;;6.47;2.67;;;;;;;-4.74;100.00;98737.41;5062732;28;20025;-54
2023/01/18 06:30:52;;;;;;;1.77;1.35;;;;;;;-4.73;100.00;98733.88;5062138;28;20413;-54
2023/01/18 06:33:18;;;;;;;1.73;1.10;;;;;;;-4.91;100.00;98728.56;5066340;28;20093;-57
2023/01/18 06:35:43;;;;;;;6.80;1.50;;;;;;;-4.99;100.00;98723.25;5063863;28;20028;-57
2023/01/18 06:38:09;;;;;;;6.90;2.58;;;;;;;-5.07;100.00;98723.91;5058490;28;20052;-54
2023/01/18 06:40:35;;;;;;;14.02;4.82;;;;;;;-5.08;100.00;98735.22;5060015;28;20080;-53
2023/01/18 06:43:00;;;;;;;9.57;3.53;;;;;;;-5.02;100.00;98736.44;5068507;28;20475;-55
2023/01/18 06:45:25;;;;;;;6.82;2.25;;;;;;;-5.11;100.00;98738.91;5067648;28;20056;-53
2023/01/18 06:47:51;;;;;;;6.93;2.47;;;;;;;-5.11;100.00;98745.81;5061790;28;20025;-54
2023/01/18 06:50:17;;;;;;;2.55;1.15;;;;;;;-4.92;100.00;98739.88;5053977;28;20509;-55
2023/01/18 06:52:43;;;;;;;3.15;1.50;;;;;;;-4.97;100.00;98739.44;5057974;28;20028;-57
2023/01/18 06:55:10;;;;;;;8.95;2.13;;;;;;;-4.93;100.00;98748.56;5058022;28;20040;-54
2023/01/18 06:57:35;;;;;;;3.17;1.23;;;;;;;-4.74;100.00;98738.22;5056079;28;20034;-53
2023/01/18 07:00:04;;;;;;;6.78;1.40;;;;;;;-4.75;100.00;98741.78;5056355;28;20037;-54
2023/01/18 07:02:31;;;;;;;4.80;1.50;;;;;;;-4.83;100.00;98751.97;5062071;28;20123;-56
2023/01/18 07:04:56;;;;;;;4.15;1.13;;;;;;;-4.79;100.00;98744.78;5059851;28;20040;-53
2023/01/18 07:07:21;;;;;;;4.88;1.88;;;;;;;-4.93;100.00;98751.13;5064294;28;21226;-54
2023/01/18 07:09:46;;;;;;;2.88;1.90;;;;;;;-4.90;100.00;98756.88;5059716;28;20088;-53
2023/01/18 07:12:12;;;;;;;6.07;1.92;;;;;;;-4.58;100.00;98736.88;5056569;28;20090;-55
2023/01/18 07:14:37;;;;;;;6.80;2.53;;;;;;;-4.64;100.00;98741.63;5059729;28;20033;-56
2023/01/18 07:17:03;;;;;;;7.60;1.85;;;;;;;-4.50;100.00;98742.16;5061719;28;20033;-57
2023/01/18 07:19:29;;;;;;;6.60;2.85;;;;;;;-4.42;100.00;98748.28;5055889;28;20435;-55
2023/01/18 07:21:54;;;;;;;11.52;3.47;;;;;;;-4.47;100.00;98753.06;5063826;28;20128;-57
2023/01/18 07:24:20;;;;;;;3.55;2.47;;;;;;;-4.43;100.00;98751.84;5070821;28;20052;-55
2023/01/18 07:26:45;;;;;;;5.45;2.47;;;;;;;-4.53;100.00;98748.44;5060153;28;20069;-55
2023/01/18 07:29:10;;;;;;;4.13;1.67;;;;;;;-4.51;100.00;98758.66;5063710;28;20039;-53
2023/01/18 07:31:37;;;;;;;4.55;2.22;;;;;;;-4.34;100.00;98760.53;5062326;28;20036;-54
2023/01/18 07:34:03;;;;;;;9.10;2.55;;;;;;;-4.43;100.00;98761.38;5070891;28;20032;-57
2023/01/18 07:36:28;;;;;;;5.75;2.70;;;;;;;-4.37;100.00;98773.75;5065098;28;20044;-54
2023/01/18 07:38:54;;;;;;;5.47;2.47;;;;;;;-4.70;100.00;98755.13;5062915;28;20044;-55
2023/01/18 07:41:21;;;;;;;2.50;1.35;;;;;;;-4.52;100.00;98767.34;5061295;28;20413;-55
2023/01/18 07:43:47;;;;;;;11.27;3.53;;;;;;;-4.61;100.00;98763.81;5062776;28;20070;-56
2023/01/18 07:46:15;;;;;;;10.63;4.07;;;;;;;-4.79;100.00;98774.03;5059987;28;20428;-56
2023/01/18 07:48:41;;;;;;;11.20;3.47;;;;;;;-4.94;100.00;98781.34;5061533;28;20040;-57
2023/01/18 07:51:08;;;;;;;15.05;4.35;;;;;;;-4.67;100.00;98783.31;5054582;28;20500;-55
2023/01/18 07:53:35;;;;;;;6.85;3.78;;;;;;;-4.84;100.00;98778.78;5061137;28;20101;-56
2023/01/18 07:56:05;;;;;;;8.98;4.15;;;;;;;-4.86;100.00;98791.03;5060177;28;20063;-52
2023/01/18 07:58:31;;;;;;;9.13;4.30;;;;;;;-4.47;100.00;98791.84;5062828;28;20473;-52
2023/01/18 08:01:12;;;;;;;11.02;4.68;;;;;;;-4.77;100.00;98785.06;5050565;28;20107;-55
2023/01/18 08:03:38;;;;;;;11.25;4.43;;;;;;;-4.71;100.00;98794.84;5061713;28;20024;-54
2023/01/18 08:06:05;;;;;;;16.27;5.25;;;;;;;-4.71;100.00;98802.59;5057550;28;20044;-51
2023/01/18 08:08:32;;;;;;;19.42;6.63;;;;;;;-4.92;100.00;98807.88;5058931;28;20032;-56
2023/01/18 08:10:59;;;;;;;14.07;6.55;;;;;;;-5.07;100.00;98815.19;5045769;28;20526;-53
2023/01/18 08:13:26;;;;;;;11.70;4.57;;;;;;;-4.92;100.00;98827.75;5059356;28;20035;-57
2023/01/18 08:15:52;;;;;;;21.02;6.88;;;;;;;-4.80;100.00;98834.47;5052506;28;20029;-52
2023/01/18 08:18:17;;;;;;;10.65;4.93;;;;;;;-4.55;100.00;98829.72;5052832;28;20040;-53
2023/01/18 08:20:47;;;;;;;10.57;3.60;;;;;;;-4.74;100.00;98839.09;5061292;28;20033;-51
2023/01/18 08:23:14;;;;;;;7.20;3.73;;;;;;;-4.61;100.00;98831.06;5057422;28;20225;-53
2023/01/18 08:25:40;;;;;;;11.85;4.97;;;;;;;-4.56;100.00;98848.78;5048675;28;20115;-57
2023/01/18 08:28:06;;;;;;;16.63;4.82;;;;;;;-4.42;100.00;98854.34;5053867;28;20040;-53
2023/01/18 08:30:35;;;;;;;4.40;2.88;;;;;;;-4.40;100.00;98859.41;5059034;28;20033;-57
2023/01/18 08:33:02;;;;;;;4.10;2.53;;;;;;;-4.38;100.00;98868.69;5052506;28;20020;-52
2023/01/18 08:35:29;;;;;;;10.68;2.88;;;;;;;-4.33;100.00;98870.88;5054679;28;20382;-53
2023/01/18 08:37:56;;;;;;;5.95;1.58;;;;;;;-4.44;100.00;98870.97;5059831;28;20025;-55
2023/01/18 08:40:22;;;;;;;4.32;1.90;;;;;;;-4.53;100.00;98877.78;5057396;28;20032;-57
2023/01/18 08:42:48;;;;;;;2.95;1.77;;;;;;;-4.52;100.00;98884.56;5054855;28;20596;-56
2023/01/18 08:45:14;;;;;;;3.60;1.80;;;;;;;-4.47;100.00;98884.19;5072718;28;20143;-53
2023/01/18 08:47:39;;;;;;;5.55;2.65;;;;;;;-4.55;100.00;98887.44;5049977;28;20028;-53
2023/01/18 08:50:06;;;;;;;5.40;2.30;;;;;;;-4.54;100.00;98883.91;5049444;28;20075;-53
2023/01/18 08:52:33;;;;;;;5.63;2.65;;;;;;;-4.39;100.00;98892.09;5043669;28;20045;-52
2023/01/18 08:54:59;;;;;;;9.00;2.05;;;;;;;-4.41;100.00;98889.66;5058612;28;20107;-56
2023/01/18 08:57:26;;;;;;;9.35;4.10;;;;;;;-4.21;100.00;98894.81;5061692;28;20024;-51
2023/01/18 08:59:51;;;;;;;12.57;3.22;;;;;;;-4.15;100.00;98893.50;5059454;28;20062;-56
2023/01/18 09:02:17;;;;;;;3.38;2.67;;;;;;;-4.04;100.00;98893.34;5059851;28;20048;-56
2023/01/18 09:04:47;;;;;;;7.80;3.58;;;;;;;-3.97;100.00;98894.44;5059414;28;20068;-56
2023/01/18 09:07:12;;;;;;;3.80;2.42;;;;;;;-3.87;100.00;98897.84;5063319;28;20585;-53
2023/01/18 09:09:38;;;;;;;14.52;3.90;;;;;;;-3.87;100.00;98897.84;5059229;28;20086;-56
2023/01/18 09:12:03;;;;;;;7.65;3.80;;;;;;;-3.81;100.00;98897.28;5059807;28;20039;-53
2023/01/18 09:14:29;;;;;;;4.75;3.38;;;;;;;-3.78;100.00;98909.94;5060648;28;20473;-52
2023/01/18 09:16:54;;;;;;;12.25;4.38;;;;;;;-3.67;100.00;98913.34;5057883;28;20028;-53
2023/01/18 09:19:20;;;;;;;11.27;6.05;;;;;;;-3.68;100.00;98922.09;5063230;28;20024;-53
2023/01/18 09:21:47;;;;;;;11.48;6.07;;;;;;;-3.46;100.00;98911.41;5059267;28;20063;-52
2023/01/18 09:24:13;;;;;;;18.35;5.60;;;;;;;-3.32;100.00;98908.38;5053449;28;20162;-50
2023/01/18 09:26:39;;;;;;;9.35;5.30;;;;;;;-3.26;100.00;98903.59;5062063;28;20058;-53
2023/01/18 09:29:05;;;;;;;5.40;3.00;;;;;;;-3.00;100.00;98904.56;5060587;28;20040;-52
2023/01/18 09:31:30;;;;;;;5.60;3.08;;;;;;;-2.78;100.00;98898.22;5062698;28;20032;-51
2023/01/18 09:33:56;;;;;;;10.82;3.78;;;;;;;-2.59;100.00;98899.06;5064715;28;20299;-48
2023/01/18 09:36:25;;;;;;;7.63;2.80;;;;;;;-2.26;100.00;98916.63;5063458;28;20039;-54
2023/01/18 09:38:51;;;;;;;4.28;2.72;;;;;;;-2.08;100.00;98908.03;5060219;28;20094;-51
2023/01/18 09:41:37;;;;;;;4.22;2.60;;;;;;;-1.96;100.00;98914.63;5061536;28;20040;-55
2023/01/18 09:44:23;;;;;;;6.30;2.33;;;;;;;-1.77;100.00;98921.44;5059402;28;20071;-52
2023/01/18 09:46:53;;;;;;;1.98;1.60;;;;;;;-1.72;100.00;98926.19;5061659;28;20036;-53
2023/01/18 09:49:25;;;;;;;4.07;2.35;;;;;;;-1.37;100.00;98939.13;5062284;28;20067;-53
2023/01/18 09:51:54;;;;;;;1.10;0.55;;;;;;;-0.68;100.00;98945.19;5057628;28;20422;-53
2023/01/18 09:54:31;;;;;;;6.97;0.30;;;;;;;-0.08;100.00;98949.47;5059711;28;20035;-55
2023/01/18 09:57:15;;;;;;;2.78;0.40;;;;;;;0.26;100.00;98950.31;5059932;28;20083;-50
2023/01/18 09:59:53;;;;;;;1.25;0.30;;;;;;;0.46;100.00;98958.63;5060632;28;20028;-48
2023/01/18 10:02:27;;;;;;;3.80;0.22;;;;;;;0.73;100.00;98949.66;5066426;28;20367;-53
2023/01/18 10:04:57;;;;;;;0.28;0.00;;;;;;;0.90;100.00;98958.25;5054938;28;20025;-47
2023/01/18 10:07:26;;;;;;;2.05;0.10;;;;;;;1.11;100.00;98957.72;5064044;28;20036;-49
2023/01/18 10:09:57;;;;;;;0.32;0.10;;;;;;;1.18;100.00;98958.69;5062913;28;20037;-50
2023/01/18 10:12:36;;;;;;;2.60;0.30;;;;;;;1.19;100.00;98966.38;5062946;28;20421;-49
2023/01/18 10:15:21;;;;;;;0.30;0.28;;;;;;;1.34;100.00;98974.28;5059940;28;20036;-49
2023/01/18 10:17:50;;;;;;;2.75;0.00;;;;;;;1.31;100.00;98975.44;5062402;28;20036;-50
2023/01/18 10:20:27;;;;;;;2.15;0.38;;;;;;;1.40;100.00;98984.09;5063536;28;20059;-50
2023/01/18 10:23:00;;;;;;;1.00;0.30;;;;;;;1.47;100.00;98982.44;5061993;28;20811;-48
2023/01/18 10:25:41;;;;;;;0.20;0.20;;;;;;;1.70;100.00;98984.28;5063020;28;20039;-52
2023/01/18 10:28:38;;;;;;;0.57;0.10;;;;;;;1.78;100.00;98993.88;5062596;28;20122;-50
2023/01/18 10:31:03;;;;;;;0.10;0.00;;;;;;;1.74;100.00;98991.63;5062626;28;20404;-47
2023/01/18 10:33:37;;;;;;;0.57;0.25;;;;;;;1.68;100.00;99000.16;5063027;28;20035;-48
2023/01/18 10:36:18;;;;;;;5.28;0.10;;;;;;;2.02;100.00;99000.81;5060162;28;20066;-50
2023/01/18 10:38:45;;;;;;;0.35;0.22;;;;;;;2.14;100.00;99002.88;5062297;28;20054;-52
2023/01/18 10:41:18;;;;;;;0.40;0.40;;;;;;;2.22;100.00;99001.16;5061920;28;20106;-47
2023/01/18 10:43:44;;;;;;;4.13;0.00;;;;;;;2.07;100.00;98991.47;5056159;28;20625;-49
2023/01/18 10:46:16;;;;;;;2.20;0.10;;;;;;;1.93;100.00;98993.00;5058364;28;20119;-49
2023/01/18 10:48:50;;;;;;;3.13;0.10;;;;;;;2.00;100.00;98997.56;5058043;28;20131;-52
2023/01/18 10:51:27;;;;;;;2.47;0.10;;;;;;;1.90;100.00;98988.09;5054352;28;20702;-48
2023/01/18 10:53:53;;;;;;;0.55;0.15;;;;;;;1.97;100.00;99006.53;5062333;28;20166;-53
2023/01/18 10:56:23;;;;;;;0.73;0.20;;;;;;;2.18;100.00;99008.56;5062786;28;20433;-51
2023/01/18 10:59:25;;;;;;;3.22;0.20;;;;;;;2.50;100.00;99007.50;5062973;28;20028;-54
2023/01/18 11:01:55;;;;;;;7.05;0.52;;;;;;;2.45;100.00;99011.63;5061741;28;20071;-49
2023/01/18 11:04:27;;;;;;;0.17;0.10;;;;;;;2.40;100.00;99014.78;5060145;28;20041;-52
2023/01/18 11:07:00;;;;;;;3.13;0.00;;;;;;;2.65;100.00;99009.38;5059190;28;20090;-51
2023/01/18 11:09:47;;;;;;;0.30;0.17;;;;;;;2.59;100.00;99016.13;5059111;28;20055;-48
2023/01/18 11:12:40;;;;;;;0.47;0.30;;;;;;;2.97;100.00;99019.56;5058233;28;20033;-51
2023/01/18 11:15:12;;;;;;;1.65;0.32;;;;;;;3.24;100.00;99025.22;5058943;28;20078;-48
2023/01/18 11:17:37;;;;;;;0.35;0.22;;;;;;;3.34;100.00;99020.53;5058857;28;20431;-54
2023/01/18 11:20:14;;;;;;;0.68;0.10;;;;;;;3.31;100.00;99030.56;5057950;28;20047;-52
2023/01/18 11:22:54;;;;;;;0.30;0.10;;;;;;;3.26;100.00;99023.22;5058915;28;20127;-51
2023/01/18 11:25:20;;;;;;;0.88;0.10;;;;;;;3.09;100.00;99027.00;5059405;28;20066;-53
2023/01/18 11:27:48;;;;;;;3.70;0.10;;;;;;;2.87;100.00;99019.00;5061169;28;20189;-50
2023/01/18 11:30:20;;;;;;;0.00;0.00;;;;;;;3.09;100.00;99019.94;5060164;28;20512;-53
2023/01/18 11:32:45;;;;;;;;;;;;;;;3.44;100.00;99021.06;5057434;28;20048;-53
2023/01/18 11:35:26;;;;;;;0.90;0.60;;;;;;;3.58;100.00;99016.00;5059843;28;20338;-49
2023/01/18 11:37:58;;;;;;;1.05;0.22;;;;;;;3.39;100.00;99020.00;5060339;28;20036;-53
2023/01/18 11:40:27;;;;;;;;;;;;;;;3.59;100.00;99013.22;5061885;28;20036;-52
2023/01/18 11:42:58;;;;;;;5.72;0.10;;;;;;;3.68;100.00;99022.59;5058656;28;19913;-48
2023/01/18 11:45:39;;;;;;;0.40;0.00;;;;;;;4.03;100.00;99017.59;5060446;28;20043;-53
2023/01/18 11:48:27;;;;;;;2.92;0.65;;;;;;;4.11;100.00;99021.91;5061326;28;20044;-52
2023/01/18 11:51:09;;;;;;;2.92;1.08;;;;;;;4.43;100.00;99014.56;5059454;28;20035;-52
2023/01/18 11:53:47;;;;;;;0.00;0.00;;;;;;;4.59;100.00;99011.69;5059624;28;20393;-49
2023/01/18 11:56:44;;;;;;;0.40;0.05;;;;;;;4.29;100.00;99016.25;5059852;28;20453;-51
2023/01/18 11:59:28;;;;;;;0.43;0.10;;;;;;;4.05;100.00;99017.38;5060132;28;20402;-54
2023/01/18 12:02:32;;;;;;;6.72;1.17;;;;;;;4.48;100.00;99017.44;5059997;28;20037;-51
2023/01/18 12:05:24;;;;;;;0.70;0.30;;;;;;;4.38;100.00;99023.00;5049852;28;20068;-47
2023/01/18 12:07:58;;;;;;;0.60;0.20;;;;;;;4.58;100.00;99020.56;5063303;28;20549;-51
2023/01/18 12:10:29;;;;;;;0.20;0.20;;;;;;;4.29;100.00;99017.06;5061173;28;20538;-50